createdAt,value
2017-06-14T00:00:20.913Z,13.23
2017-06-14T00:02:48.572Z,14.37
2017-06-14T00:05:30.523Z,14.60
2017-06-14T00:08:13.197Z,12.60
2017-06-14T00:10:55.380Z,14.10
2017-06-14T00:13:37.632Z,14.00
2017-06-14T00:16:19.894Z,13.87
2017-06-14T00:19:03.041Z,14.33
2017-06-14T00:21:32.624Z,13.97
2017-06-14T00:24:14.936Z,13.63
2017-06-14T00:26:42.697Z,13.37
2017-06-14T00:29:11.054Z,13.40
2017-06-14T00:31:38.840Z,13.80
2017-06-14T00:34:06.707Z,13.70
2017-06-14T00:36:34.828Z,14.00
2017-06-14T00:39:02.541Z,13.30
2017-06-14T00:41:30.691Z,12.83
2017-06-14T00:43:59.285Z,12.80
2017-06-14T00:46:27.144Z,12.80
2017-06-14T00:48:54.936Z,13.77
2017-06-14T00:51:22.795Z,13.27
2017-06-14T00:53:50.541Z,12.83
2017-06-14T00:56:19.158Z,13.73
2017-06-14T00:58:47.094Z,13.17
2017-06-14T01:01:14.959Z,14.00
2017-06-14T01:03:43.440Z,13.07
2017-06-14T01:06:11.229Z,13.80
2017-06-14T01:08:39.096Z,13.60
2017-06-14T01:11:06.960Z,13.77
2017-06-14T01:13:34.906Z,13.60
2017-06-14T01:16:02.695Z,13.27
2017-06-14T01:18:30.354Z,13.17
2017-06-14T01:20:58.563Z,13.07
2017-06-14T01:23:26.561Z,11.87
2017-06-14T01:25:54.576Z,12.30
2017-06-14T01:28:22.544Z,11.23
2017-06-14T01:30:52.459Z,12.37
2017-06-14T01:33:21.031Z,11.87
2017-06-14T01:35:48.779Z,11.77
2017-06-14T01:38:16.424Z,11.37
2017-06-14T01:40:44.308Z,11.50
2017-06-14T01:43:12.174Z,11.80
2017-06-14T01:45:40.450Z,12.10
2017-06-14T01:48:08.569Z,12.20
2017-06-14T01:50:36.389Z,11.80
2017-06-14T01:53:05.005Z,11.63
2017-06-14T01:55:32.737Z,11.03
2017-06-14T01:58:00.619Z,11.20
2017-06-14T02:00:29.462Z,10.20
2017-06-14T02:02:57.480Z,10.30
2017-06-14T02:05:25.144Z,10.53
2017-06-14T02:07:52.844Z,11.13
2017-06-14T02:10:20.673Z,11.20
2017-06-14T02:12:48.540Z,10.80
2017-06-14T02:15:16.284Z,10.70
2017-06-14T02:17:44.766Z,10.10
2017-06-14T02:20:12.632Z,11.23
2017-06-14T02:22:41.143Z,12.63
2017-06-14T02:25:09.923Z,13.47
2017-06-14T02:27:37.870Z,12.27
2017-06-14T02:30:06.147Z,11.80
2017-06-14T02:32:34.014Z,10.73
2017-06-14T02:35:04.596Z,10.80
2017-06-14T02:37:32.668Z,10.10
2017-06-14T02:40:15.066Z,10.60
2017-06-14T02:42:57.269Z,10.80
2017-06-14T02:45:39.636Z,11.00
2017-06-14T02:48:21.919Z,10.70
2017-06-14T02:51:04.277Z,12.90
2017-06-14T02:53:46.537Z,15.87
2017-06-14T02:56:29.270Z,16.07
2017-06-14T02:59:11.652Z,18.02
2017-06-14T03:01:40.005Z,19.17
2017-06-14T03:04:22.311Z,18.00
2017-06-14T03:07:04.961Z,18.48
2017-06-14T03:09:47.077Z,17.50
2017-06-14T03:12:20.071Z,19.13
2017-06-14T03:15:02.387Z,18.23
2017-06-14T03:17:45.023Z,20.00
2017-06-14T03:20:21.907Z,18.80
2017-06-14T03:22:49.749Z,19.95
2017-06-14T03:25:17.948Z,19.30
2017-06-14T03:27:45.845Z,18.85
2017-06-14T03:30:13.644Z,19.17
2017-06-14T03:32:41.594Z,18.85
2017-06-14T03:35:09.461Z,18.10
2017-06-14T03:37:37.247Z,19.10
2017-06-14T03:40:05.331Z,18.75
2017-06-14T03:42:33.024Z,18.75
2017-06-14T03:45:00.853Z,19.02
2017-06-14T03:47:28.938Z,19.15
2017-06-14T03:49:56.587Z,17.95
2017-06-14T03:52:24.321Z,18.50
2017-06-14T03:54:53.416Z,17.55
2017-06-14T03:57:25.175Z,17.95
2017-06-14T03:59:53.167Z,18.00
2017-06-14T04:02:22.872Z,17.70
2017-06-14T04:04:52.324Z,18.17
2017-06-14T04:07:25.736Z,18.25
2017-06-14T04:09:53.423Z,18.73
2017-06-14T04:12:21.547Z,14.90
2017-06-14T04:14:49.460Z,12.50
2017-06-14T04:17:17.941Z,12.17
2017-06-14T04:19:45.603Z,13.97
2017-06-14T04:22:13.879Z,14.20
2017-06-14T04:24:41.672Z,11.90
2017-06-14T04:27:10.657Z,12.67
2017-06-14T04:29:38.503Z,11.60
2017-06-14T04:32:07.221Z,11.80
2017-06-14T04:34:34.860Z,10.47
2017-06-14T04:37:06.625Z,10.77
2017-06-14T04:39:34.372Z,10.73
2017-06-14T04:42:02.361Z,9.70
2017-06-14T04:44:31.162Z,9.63
2017-06-14T04:46:59.593Z,9.90
2017-06-14T04:49:27.392Z,10.27
2017-06-14T04:51:55.497Z,9.23
2017-06-14T04:54:23.823Z,10.10
2017-06-14T04:56:51.941Z,9.50
2017-06-14T04:59:19.680Z,10.40
2017-06-14T05:01:47.340Z,9.10
2017-06-14T05:04:15.036Z,9.60
2017-06-14T05:06:42.953Z,8.83
2017-06-14T05:09:10.737Z,9.07
2017-06-14T05:11:38.696Z,8.87
2017-06-14T05:14:07.196Z,9.03
2017-06-14T05:16:35.033Z,8.50
2017-06-14T05:19:02.921Z,9.67
2017-06-14T05:21:30.569Z,8.87
2017-06-14T05:23:58.204Z,8.80
2017-06-14T05:26:25.908Z,8.77
2017-06-14T05:28:54.860Z,9.07
2017-06-14T05:31:22.643Z,8.03
2017-06-14T05:33:51.291Z,8.60
2017-06-14T05:36:19.972Z,8.70
2017-06-14T05:38:47.808Z,8.00
2017-06-14T05:41:15.748Z,8.23
2017-06-14T05:43:43.549Z,8.30
2017-06-14T05:46:11.380Z,8.10
2017-06-14T05:48:39.249Z,7.90
2017-06-14T05:51:07.112Z,7.60
2017-06-14T05:53:34.979Z,7.87
2017-06-14T05:56:03.577Z,7.10
2017-06-14T05:58:31.331Z,7.23
2017-06-14T06:00:59.124Z,7.20
2017-06-14T06:03:27.062Z,6.67
2017-06-14T06:05:54.866Z,7.00
2017-06-14T06:08:22.794Z,6.40
2017-06-14T06:10:50.458Z,6.30
2017-06-14T06:13:18.467Z,6.20
2017-06-14T06:15:46.308Z,6.47
2017-06-14T06:18:14.176Z,5.93
2017-06-14T06:20:41.922Z,5.97
2017-06-14T06:23:09.789Z,6.60
2017-06-14T06:25:37.656Z,6.40
2017-06-14T06:28:05.781Z,6.33
2017-06-14T06:30:34.123Z,6.70
2017-06-14T06:33:01.772Z,6.40
2017-06-14T06:35:30.351Z,6.47
2017-06-14T06:37:58.730Z,6.30
2017-06-14T06:40:26.617Z,6.33
2017-06-14T06:42:54.362Z,6.10
2017-06-14T06:45:22.195Z,5.77
2017-06-14T06:47:50.095Z,6.07
2017-06-14T06:50:17.962Z,6.37
2017-06-14T06:52:45.745Z,5.40
2017-06-14T06:55:13.838Z,5.67
2017-06-14T06:57:41.907Z,5.80
2017-06-14T07:00:10.100Z,5.97
2017-06-14T07:02:37.916Z,5.73
2017-06-14T07:05:05.691Z,5.63
2017-06-14T07:07:33.585Z,5.17
2017-06-14T07:10:01.919Z,5.50
2017-06-14T07:12:30.401Z,5.20
2017-06-14T07:14:58.185Z,5.40
2017-06-14T07:17:26.265Z,5.20
2017-06-14T07:19:53.918Z,5.33
2017-06-14T07:22:22.369Z,5.60
2017-06-14T07:24:50.045Z,4.80
2017-06-14T07:27:17.720Z,5.13
2017-06-14T07:29:45.570Z,5.30
2017-06-14T07:32:13.436Z,5.40
2017-06-14T07:34:41.508Z,5.13
2017-06-14T07:37:10.471Z,4.60
2017-06-14T07:39:38.389Z,4.57
2017-06-14T07:42:06.221Z,4.57
2017-06-14T07:44:34.616Z,4.63
2017-06-14T07:47:02.600Z,4.20
2017-06-14T07:49:30.385Z,4.93
2017-06-14T07:51:58.214Z,4.67
2017-06-14T07:54:26.285Z,4.17
2017-06-14T07:56:55.486Z,4.20
2017-06-14T07:59:23.247Z,4.37
2017-06-14T08:01:51.032Z,4.30
2017-06-14T08:04:18.713Z,4.00
2017-06-14T08:06:46.641Z,4.23
2017-06-14T08:09:14.516Z,4.03
2017-06-14T08:11:42.802Z,4.23
2017-06-14T08:14:11.387Z,3.50
2017-06-14T08:16:39.257Z,3.60
2017-06-14T08:19:06.917Z,3.20
2017-06-14T08:21:34.867Z,3.27
2017-06-14T08:24:02.647Z,3.00
2017-06-14T08:26:30.516Z,3.20
2017-06-14T08:28:58.461Z,3.20
2017-06-14T08:31:26.334Z,2.90
2017-06-14T08:33:54.117Z,3.20
2017-06-14T08:36:22.397Z,3.10
2017-06-14T08:38:50.037Z,2.90
2017-06-14T08:41:17.906Z,3.27
2017-06-14T08:43:45.684Z,2.57
2017-06-14T08:46:13.431Z,3.17
2017-06-14T08:48:41.225Z,2.83
2017-06-14T08:51:10.129Z,2.80
2017-06-14T08:53:37.852Z,2.70
2017-06-14T08:56:05.528Z,2.90
2017-06-14T08:58:33.397Z,2.70
2017-06-14T09:01:01.233Z,2.50
2017-06-14T09:03:29.215Z,2.70
2017-06-14T09:05:57.000Z,2.60
2017-06-14T09:08:25.341Z,2.93
2017-06-14T09:10:53.225Z,2.40
2017-06-14T09:13:21.097Z,2.70
2017-06-14T09:15:48.958Z,2.70
2017-06-14T09:18:17.413Z,3.00
2017-06-14T09:20:45.461Z,2.77
2017-06-14T09:23:13.150Z,2.77
2017-06-14T09:25:41.150Z,2.80
2017-06-14T09:28:09.118Z,3.20
2017-06-14T09:30:37.713Z,2.60
2017-06-14T09:33:05.372Z,2.60
2017-06-14T09:35:33.240Z,2.57
2017-06-14T09:38:01.218Z,2.60
2017-06-14T09:40:28.972Z,2.60
2017-06-14T09:42:56.724Z,3.13
2017-06-14T09:45:24.588Z,2.50
2017-06-14T09:47:52.596Z,2.53
2017-06-14T09:50:20.692Z,2.50
2017-06-14T09:52:49.310Z,2.60
2017-06-14T09:55:17.187Z,2.83
2017-06-14T09:57:45.500Z,2.70
2017-06-14T10:00:14.041Z,2.90
2017-06-14T10:02:41.824Z,2.70
2017-06-14T10:05:09.569Z,2.80
2017-06-14T10:07:37.352Z,2.50
2017-06-14T10:10:05.001Z,2.70
2017-06-14T10:12:32.880Z,3.00
2017-06-14T10:15:00.515Z,2.47
2017-06-14T10:17:29.050Z,2.87
2017-06-14T10:19:56.901Z,2.83
2017-06-14T10:22:24.756Z,2.53
2017-06-14T10:24:52.421Z,3.10
2017-06-14T10:27:20.290Z,3.10
2017-06-14T10:29:48.152Z,3.40
2017-06-14T10:32:16.390Z,3.70
2017-06-14T10:34:44.385Z,3.70
2017-06-14T10:37:12.248Z,3.90
2017-06-14T10:39:39.940Z,4.07
2017-06-14T10:42:08.595Z,4.13
2017-06-14T10:44:36.377Z,4.00
2017-06-14T10:47:04.004Z,4.30
2017-06-14T10:49:32.604Z,4.10
2017-06-14T10:52:00.390Z,4.37
2017-06-14T10:54:28.321Z,4.40
2017-06-14T10:56:56.330Z,4.43
2017-06-14T10:59:23.972Z,4.40
2017-06-14T11:01:51.938Z,3.50
2017-06-14T11:04:19.720Z,4.30
2017-06-14T11:06:47.408Z,4.60
2017-06-14T11:09:15.848Z,4.47
2017-06-14T11:11:43.711Z,4.13
2017-06-14T11:14:11.344Z,4.40
2017-06-14T11:16:39.240Z,4.73
2017-06-14T11:19:07.061Z,5.10
2017-06-14T11:21:34.756Z,4.90
2017-06-14T11:24:03.249Z,4.50
2017-06-14T11:26:30.940Z,5.10
2017-06-14T11:28:59.336Z,4.73
2017-06-14T11:31:27.370Z,5.10
2017-06-14T11:33:55.144Z,4.70
2017-06-14T11:36:23.269Z,5.37
2017-06-14T11:38:51.426Z,4.70
2017-06-14T11:41:19.770Z,5.20
2017-06-14T11:43:47.498Z,5.30
2017-06-14T11:46:15.997Z,4.80
2017-06-14T11:48:44.468Z,4.83
2017-06-14T11:51:12.259Z,5.07
2017-06-14T11:53:40.367Z,5.10
2017-06-14T11:56:08.096Z,5.03
2017-06-14T11:58:36.047Z,5.37
2017-06-14T12:01:04.352Z,5.40
2017-06-14T12:03:32.190Z,4.90
2017-06-14T12:06:00.859Z,5.00
2017-06-14T12:08:28.657Z,5.30
2017-06-14T12:10:56.321Z,5.20
2017-06-14T12:13:24.643Z,5.27
2017-06-14T12:15:53.069Z,5.70
2017-06-14T12:18:20.943Z,5.50
2017-06-14T12:20:48.690Z,5.13
2017-06-14T12:23:16.472Z,5.10
2017-06-14T12:25:44.236Z,4.90
2017-06-14T12:28:11.984Z,4.60
2017-06-14T12:30:40.332Z,4.70
2017-06-14T12:33:08.127Z,5.10
2017-06-14T12:35:35.992Z,5.07
2017-06-14T12:38:03.621Z,4.73
2017-06-14T12:40:31.441Z,5.10
2017-06-14T12:42:59.104Z,5.20
2017-06-14T12:45:26.969Z,5.10
2017-06-14T12:47:54.628Z,4.90
2017-06-14T12:50:22.496Z,5.47
2017-06-14T12:52:50.161Z,4.67
2017-06-14T12:55:18.390Z,5.30
2017-06-14T12:57:46.179Z,4.73
2017-06-14T13:00:14.661Z,5.17
2017-06-14T13:02:42.444Z,4.93
2017-06-14T13:05:10.312Z,5.60
2017-06-14T13:07:37.974Z,5.03
2017-06-14T13:10:28.754Z,5.03
2017-06-14T13:12:56.435Z,5.23
2017-06-14T13:15:24.314Z,5.10
2017-06-14T13:17:52.260Z,4.90
2017-06-14T13:20:20.037Z,4.97
2017-06-14T13:22:47.688Z,4.83
2017-06-14T13:25:15.372Z,4.73
2017-06-14T13:27:43.108Z,5.10
2017-06-14T13:30:10.974Z,5.07
2017-06-14T13:32:39.047Z,5.40
2017-06-14T13:35:06.738Z,5.20
2017-06-14T13:37:35.394Z,5.33
2017-06-14T13:40:03.261Z,4.70
2017-06-14T13:42:31.048Z,5.50
2017-06-14T13:44:58.739Z,5.10
2017-06-14T13:47:26.811Z,4.93
2017-06-14T13:49:54.645Z,5.20
2017-06-14T13:52:22.750Z,5.53
2017-06-14T13:54:50.461Z,5.27
2017-06-14T13:57:18.244Z,5.37
2017-06-14T13:59:45.904Z,5.20
2017-06-14T14:02:13.859Z,5.07
2017-06-14T14:04:41.647Z,5.30
2017-06-14T14:07:09.508Z,5.27
2017-06-14T14:09:37.148Z,5.50
2017-06-14T14:12:05.016Z,4.90
2017-06-14T14:14:33.348Z,4.90
2017-06-14T14:17:01.076Z,5.73
2017-06-14T14:19:28.741Z,4.93
2017-06-14T14:21:56.687Z,4.90
2017-06-14T14:24:24.475Z,4.93
2017-06-14T14:26:53.035Z,4.93
2017-06-14T14:29:20.890Z,5.33
2017-06-14T14:31:49.589Z,5.30
2017-06-14T14:34:17.373Z,5.27
2017-06-14T14:36:45.014Z,5.10
2017-06-14T14:39:13.393Z,5.20
2017-06-14T14:41:41.179Z,5.20
2017-06-14T14:44:09.045Z,5.33
2017-06-14T14:46:36.703Z,5.00
2017-06-14T14:49:04.576Z,5.00
2017-06-14T14:51:32.210Z,5.40
2017-06-14T14:54:00.697Z,5.17
2017-06-14T14:56:28.568Z,5.07
2017-06-14T14:58:56.460Z,5.80
2017-06-14T15:01:25.013Z,5.67
2017-06-14T15:03:53.357Z,5.20
2017-06-14T15:06:21.048Z,5.13
2017-06-14T15:08:48.837Z,5.57
2017-06-14T15:11:16.787Z,5.17
2017-06-14T15:13:44.799Z,4.90
2017-06-14T15:16:12.644Z,5.20
2017-06-14T15:18:40.416Z,5.43
2017-06-14T15:21:08.171Z,5.33
2017-06-14T15:23:35.915Z,5.17
2017-06-14T15:26:03.699Z,5.00
2017-06-14T15:28:31.916Z,5.27
2017-06-14T15:30:59.723Z,5.33
2017-06-14T15:33:28.050Z,5.07
2017-06-14T15:35:55.780Z,4.93
2017-06-14T15:38:23.515Z,4.70
2017-06-14T15:40:51.309Z,5.40
2017-06-14T15:43:19.037Z,5.53
2017-06-14T15:45:47.617Z,5.73
2017-06-14T15:48:15.606Z,5.40
2017-06-14T15:50:43.833Z,4.93
2017-06-14T15:53:11.664Z,4.90
2017-06-14T15:55:39.771Z,5.03
2017-06-14T15:58:07.687Z,5.00
2017-06-14T16:00:36.068Z,5.30
2017-06-14T16:03:04.580Z,5.00
2017-06-14T16:05:33.322Z,5.07
2017-06-14T16:08:01.019Z,5.17
2017-06-14T16:10:28.967Z,5.40
2017-06-14T16:12:56.833Z,4.93
2017-06-14T16:15:24.618Z,4.90
2017-06-14T16:17:53.795Z,5.30
2017-06-14T16:20:23.095Z,5.60
2017-06-14T16:22:52.600Z,5.13
2017-06-14T16:25:21.722Z,4.80
2017-06-14T16:27:51.610Z,5.03
2017-06-14T16:30:21.460Z,4.87
2017-06-14T16:32:50.953Z,4.60
2017-06-14T16:35:20.125Z,4.80
2017-06-14T16:37:49.630Z,5.30
2017-06-14T16:40:18.716Z,4.57
2017-06-14T16:42:48.687Z,5.30
2017-06-14T16:45:18.555Z,5.00
2017-06-14T16:47:47.857Z,5.63
2017-06-14T16:50:17.083Z,5.33
2017-06-14T16:52:46.655Z,5.30
2017-06-14T16:55:15.887Z,5.20
2017-06-14T16:57:45.160Z,4.70
2017-06-14T17:00:14.763Z,4.67
2017-06-14T17:02:44.155Z,5.33
2017-06-14T17:05:13.676Z,6.83
2017-06-14T17:07:42.770Z,5.27
2017-06-14T17:10:29.243Z,5.20
2017-06-14T17:12:58.365Z,5.90
2017-06-14T17:15:28.694Z,6.27
2017-06-14T17:17:58.023Z,5.10
2017-06-14T17:20:27.811Z,5.00
2017-06-14T17:22:56.851Z,5.33
2017-06-14T17:25:25.880Z,5.70
2017-06-14T17:27:55.783Z,6.63
2017-06-14T17:30:24.836Z,10.00
2017-06-14T17:32:54.207Z,6.20
2017-06-14T17:35:23.332Z,5.33
2017-06-14T17:37:52.630Z,5.17
2017-06-14T17:40:21.794Z,5.40
2017-06-14T17:42:51.446Z,4.87
2017-06-14T17:45:20.708Z,5.67
2017-06-14T17:47:50.039Z,5.80
2017-06-14T17:50:19.309Z,5.00
2017-06-14T17:52:48.644Z,5.13
2017-06-14T17:55:18.049Z,4.93
2017-06-14T17:57:47.594Z,4.83
2017-06-14T18:00:17.187Z,4.43
2017-06-14T18:02:46.456Z,5.13
2017-06-14T18:05:16.339Z,5.13
2017-06-14T18:07:45.639Z,4.93
2017-06-14T18:10:15.459Z,4.90
2017-06-14T18:12:44.932Z,4.70
2017-06-14T18:15:15.077Z,4.80
2017-06-14T18:17:44.395Z,4.97
2017-06-14T18:20:14.488Z,4.77
2017-06-14T18:22:43.798Z,5.27
2017-06-14T18:27:51.794Z,4.70
2017-06-14T18:30:21.150Z,4.63
2017-06-14T18:32:50.234Z,4.70
2017-06-14T18:35:19.924Z,4.50
2017-06-14T18:37:49.050Z,4.50
2017-06-14T18:40:18.664Z,5.13
2017-06-14T18:42:47.860Z,5.03
2017-06-14T18:45:17.591Z,5.17
2017-06-14T18:47:46.951Z,5.13
2017-06-14T18:50:16.648Z,4.77
2017-06-14T18:52:46.153Z,4.60
2017-06-14T18:55:15.253Z,5.00
2017-06-14T18:57:44.580Z,5.30
2017-06-14T19:00:13.571Z,5.30
2017-06-14T19:02:43.047Z,5.20
2017-06-14T19:05:12.148Z,5.47
2017-06-14T19:07:42.196Z,5.47
2017-06-14T19:10:11.564Z,5.50
2017-06-14T19:12:40.691Z,5.77
2017-06-14T19:15:10.530Z,5.43
2017-06-14T19:17:39.566Z,6.27
2017-06-14T19:20:08.591Z,5.90
2017-06-14T19:22:53.663Z,5.60
2017-06-14T19:25:22.751Z,6.00
2017-06-14T19:27:52.673Z,6.10
2017-06-14T19:30:21.975Z,5.87
2017-06-14T19:32:51.171Z,5.60
2017-06-14T19:35:20.645Z,5.53
2017-06-14T19:37:49.771Z,6.40
2017-06-14T19:40:18.883Z,5.80
2017-06-14T19:42:48.167Z,6.50
2017-06-14T19:45:17.291Z,6.37
2017-06-14T19:47:46.531Z,6.50
2017-06-14T19:50:16.067Z,5.60
2017-06-14T19:52:45.368Z,5.93
2017-06-14T19:55:15.447Z,5.77
2017-06-14T19:57:45.322Z,6.57
2017-06-14T20:00:14.672Z,6.00
2017-06-14T20:02:44.176Z,6.27
2017-06-14T20:05:21.734Z,6.67
2017-06-14T20:07:52.640Z,9.47
2017-06-14T20:10:22.047Z,6.93
2017-06-14T20:12:51.234Z,7.53
2017-06-14T20:15:20.508Z,7.23
2017-06-14T20:17:50.015Z,7.97
2017-06-14T20:20:19.519Z,11.63
2017-06-14T20:22:48.960Z,22.57
2017-06-14T20:25:18.413Z,12.63
2017-06-14T20:27:47.655Z,16.77
2017-06-14T20:30:16.752Z,13.87
2017-06-14T20:32:45.816Z,14.40
2017-06-14T20:35:15.940Z,14.60
2017-06-14T20:37:44.919Z,12.40
2017-06-14T20:40:14.229Z,7.50
2017-06-14T20:42:43.356Z,7.20
2017-06-14T20:45:12.451Z,7.57
2017-06-14T20:47:42.015Z,6.20
2017-06-14T20:50:11.224Z,7.20
2017-06-14T20:52:40.349Z,6.70
2017-06-14T20:55:09.435Z,6.40
2017-06-14T20:57:38.439Z,6.93
2017-06-14T21:00:07.709Z,6.70
2017-06-14T21:02:37.275Z,6.63
2017-06-14T21:05:06.247Z,6.80
2017-06-14T21:07:35.279Z,6.83
2017-06-14T21:10:24.795Z,6.80
2017-06-14T21:12:54.107Z,6.30
2017-06-14T21:15:24.019Z,6.80
2017-06-14T21:17:53.473Z,7.17
2017-06-14T21:20:22.623Z,6.87
2017-06-14T21:22:51.893Z,6.97
2017-06-14T21:25:21.695Z,6.83
2017-06-14T21:27:51.097Z,7.00
2017-06-14T21:30:20.079Z,6.57
2017-06-14T21:32:49.690Z,7.20
2017-06-14T21:35:19.008Z,6.93
2017-06-14T21:37:48.309Z,7.20
2017-06-14T21:40:17.612Z,7.27
2017-06-14T21:42:46.703Z,7.10
2017-06-14T21:45:16.005Z,6.87
2017-06-14T21:47:45.763Z,7.00
2017-06-14T21:50:15.015Z,6.87
2017-06-14T21:52:44.139Z,7.03
2017-06-14T21:55:14.025Z,7.17
2017-06-14T21:57:43.939Z,8.23
2017-06-14T22:00:13.752Z,7.20
2017-06-14T22:02:43.611Z,6.53
2017-06-14T22:05:13.605Z,6.83
2017-06-14T22:07:42.708Z,6.60
2017-06-14T22:10:12.092Z,7.30
2017-06-14T22:12:41.277Z,6.83
2017-06-14T22:15:10.755Z,7.10
2017-06-14T22:17:39.734Z,6.40
2017-06-14T22:20:09.091Z,7.13
2017-06-14T22:22:38.861Z,7.07
2017-06-14T22:25:08.380Z,7.13
2017-06-14T22:27:37.351Z,7.10
2017-06-14T22:30:06.415Z,6.60
2017-06-14T22:32:35.909Z,7.20
2017-06-14T22:35:05.185Z,6.87
2017-06-14T22:37:34.484Z,6.73
2017-06-14T22:40:03.684Z,6.93
2017-06-14T22:42:33.163Z,6.20
2017-06-14T22:45:02.490Z,6.00
2017-06-14T22:47:31.715Z,6.40
2017-06-14T22:50:00.812Z,6.50
2017-06-14T22:52:29.907Z,6.53
2017-06-14T22:54:59.355Z,6.53
2017-06-14T22:57:28.506Z,6.60
2017-06-14T22:59:57.573Z,6.40
2017-06-14T23:02:26.699Z,6.50
2017-06-14T23:04:56.704Z,6.00
2017-06-14T23:07:25.708Z,6.57
2017-06-14T23:09:55.357Z,6.90
2017-06-14T23:12:24.515Z,6.40
2017-06-14T23:14:53.784Z,6.70
2017-06-14T23:17:22.910Z,6.70
2017-06-14T23:19:52.107Z,6.60
2017-06-14T23:22:21.614Z,6.40
2017-06-14T23:24:50.986Z,6.30
2017-06-14T23:27:21.123Z,6.27
2017-06-14T23:29:50.184Z,6.43
2017-06-14T23:32:19.796Z,6.47
2017-06-14T23:34:49.211Z,7.03
2017-06-14T23:37:18.423Z,6.57
2017-06-14T23:39:47.766Z,6.70
2017-06-14T23:42:16.941Z,6.80
2017-06-14T23:44:46.206Z,7.10
2017-06-14T23:47:15.331Z,6.93
2017-06-14T23:49:45.417Z,6.67
2017-06-14T23:52:15.223Z,8.00
2017-06-14T23:54:44.211Z,7.80
2017-06-14T23:57:13.527Z,8.70
2017-06-14T23:59:42.827Z,7.23
